Aviation Digital Data Service (ADDS)

Output produced by METARs form (1220 UTC 25 June 2017)
found at http://aviationweather.gov/adds/metars/
 
KLAN 251139Z 2512/2612 27010KT P6SM SCT025 BKN050 
     FM251500 27013G23KT P6SM VCSH BKN035 
     FM252300 25009KT P6SM VCSH BKN035 
     FM260700 25009KT P6SM VCSH BKN025